createdAt,value
2018-04-28T00:00:25.427Z,0.00
2018-04-28T00:01:25.379Z,0.00
2018-04-28T00:02:25.329Z,0.00
2018-04-28T00:03:25.314Z,0.00
2018-04-28T00:04:25.288Z,0.00
2018-04-28T00:05:25.216Z,0.00
2018-04-28T00:06:25.133Z,0.00
2018-04-28T00:07:25.091Z,0.00
2018-04-28T00:08:25.067Z,0.00
2018-04-28T00:09:25.011Z,0.00
2018-04-28T00:10:24.943Z,0.00
2018-04-28T00:11:24.921Z,0.00
2018-04-28T00:12:24.857Z,0.00
2018-04-28T00:13:24.793Z,0.00
2018-04-28T00:14:24.740Z,0.00
2018-04-28T00:15:24.695Z,0.00
2018-04-28T00:16:24.675Z,0.00
2018-04-28T00:17:24.629Z,0.00
2018-04-28T00:18:24.580Z,0.00
2018-04-28T00:19:24.496Z,0.00
2018-04-28T00:20:24.458Z,0.00
2018-04-28T00:21:24.400Z,0.00
2018-04-28T00:22:24.350Z,0.00
2018-04-28T00:23:24.344Z,0.00
2018-04-28T00:24:24.250Z,0.00
2018-04-28T00:25:24.205Z,0.00
2018-04-28T00:26:24.158Z,0.00
2018-04-28T00:27:24.104Z,0.00
2018-04-28T00:28:24.093Z,0.00
2018-04-28T00:29:24.008Z,0.00
2018-04-28T00:30:23.960Z,0.00
2018-04-28T00:31:23.910Z,0.00
2018-04-28T00:32:23.894Z,0.00
2018-04-28T00:33:23.817Z,0.00
2018-04-28T00:34:23.771Z,0.00
2018-04-28T00:35:23.716Z,0.00
2018-04-28T00:36:23.682Z,0.00
2018-04-28T00:37:23.646Z,0.00
2018-04-28T00:38:23.567Z,0.00
2018-04-28T00:39:23.519Z,0.00
2018-04-28T00:40:23.468Z,0.00
2018-04-28T00:41:23.421Z,0.00
2018-04-28T00:42:23.410Z,0.00
2018-04-28T00:43:23.375Z,0.00
2018-04-28T00:44:23.277Z,0.00
2018-04-28T00:45:23.224Z,0.00
2018-04-28T00:46:23.176Z,0.00
2018-04-28T00:47:23.132Z,0.00
2018-04-28T00:48:23.123Z,0.00
2018-04-28T00:49:23.040Z,0.00
2018-04-28T00:50:22.980Z,0.00
2018-04-28T00:51:22.932Z,0.00
2018-04-28T00:52:22.894Z,0.00
2018-04-28T00:53:22.869Z,0.00
2018-04-28T00:54:22.784Z,0.00
2018-04-28T00:55:22.736Z,0.00
2018-04-28T00:56:22.715Z,0.00
2018-04-28T00:57:22.674Z,0.00
2018-04-28T00:58:22.598Z,0.00
2018-04-28T00:59:22.541Z,0.00
2018-04-28T01:00:22.530Z,0.00
2018-04-28T01:01:22.445Z,0.00
2018-04-28T01:02:22.392Z,0.00
2018-04-28T01:03:22.350Z,0.00
2018-04-28T01:04:22.295Z,0.00
2018-04-28T01:05:22.290Z,0.00
2018-04-28T01:06:22.203Z,0.00
2018-04-28T01:07:22.153Z,0.00
2018-04-28T01:08:22.097Z,0.00
2018-04-28T01:09:22.052Z,0.00
2018-04-28T01:10:22.033Z,0.00
2018-04-28T01:11:21.954Z,0.00
2018-04-28T01:12:21.903Z,0.00
2018-04-28T01:13:21.853Z,0.00
2018-04-28T01:14:21.810Z,0.00
2018-04-28T01:15:21.790Z,0.00
2018-04-28T01:16:21.709Z,0.00
2018-04-28T01:17:21.695Z,0.00
2018-04-28T01:18:21.611Z,0.00
2018-04-28T01:19:21.564Z,0.00
2018-04-28T01:20:21.549Z,0.00
2018-04-28T01:21:21.471Z,0.00
2018-04-28T01:22:21.425Z,0.00
2018-04-28T01:23:21.365Z,0.00
2018-04-28T01:24:21.315Z,0.00
2018-04-28T01:25:21.306Z,0.00
2018-04-28T01:26:21.221Z,0.00
2018-04-28T01:27:21.181Z,0.00
2018-04-28T01:28:21.120Z,0.00
2018-04-28T01:29:21.081Z,0.00
2018-04-28T01:30:21.070Z,0.00
2018-04-28T01:31:20.973Z,0.00
2018-04-28T01:32:20.924Z,0.00
2018-04-28T01:33:20.881Z,0.00
2018-04-28T01:34:20.828Z,0.00
2018-04-28T01:35:20.815Z,0.00
2018-04-28T01:36:20.729Z,0.00
2018-04-28T01:37:20.680Z,0.00
2018-04-28T01:38:20.635Z,0.00
2018-04-28T01:39:20.623Z,0.00
2018-04-28T01:40:20.547Z,0.00
2018-04-28T01:41:20.486Z,0.00
2018-04-28T01:42:20.439Z,0.00
2018-04-28T01:43:20.389Z,0.00
2018-04-28T01:44:20.371Z,0.00
2018-04-28T01:45:20.323Z,0.00
2018-04-28T01:46:20.280Z,0.00
2018-04-28T01:47:20.194Z,0.00
2018-04-28T01:48:20.156Z,0.00
2018-04-28T01:49:20.100Z,0.00
2018-04-28T01:50:20.048Z,0.00
2018-04-28T01:51:20.035Z,0.00
2018-04-28T01:52:19.953Z,0.00
2018-04-28T01:53:19.915Z,0.00
2018-04-28T01:54:19.855Z,0.00
2018-04-28T01:55:19.804Z,0.00
2018-04-28T01:56:19.793Z,0.00
2018-04-28T01:57:19.706Z,0.00
2018-04-28T01:58:19.660Z,0.00
2018-04-28T01:59:19.616Z,0.00
2018-04-28T02:00:19.559Z,0.00
2018-04-28T02:01:19.548Z,0.00
2018-04-28T02:02:19.463Z,0.00
2018-04-28T02:03:19.447Z,0.00
2018-04-28T02:04:19.372Z,0.00
2018-04-28T02:05:19.320Z,0.00
2018-04-28T02:06:19.274Z,0.00
2018-04-28T02:07:19.220Z,0.00
2018-04-28T02:08:19.214Z,0.00
2018-04-28T02:09:19.121Z,0.00
2018-04-28T02:10:19.071Z,0.00
2018-04-28T02:11:19.029Z,0.00
2018-04-28T02:12:18.975Z,0.00
2018-04-28T02:13:18.959Z,0.00
2018-04-28T02:14:18.882Z,0.00
2018-04-28T02:15:18.872Z,0.00
2018-04-28T02:16:18.784Z,0.00
2018-04-28T02:17:18.738Z,0.00
2018-04-28T02:18:18.683Z,0.00
2018-04-28T02:19:18.648Z,0.00
2018-04-28T02:20:18.634Z,0.00
2018-04-28T02:21:18.541Z,0.00
2018-04-28T02:22:18.489Z,0.00
2018-04-28T02:23:18.439Z,0.00
2018-04-28T02:24:18.393Z,0.00
2018-04-28T02:25:18.397Z,0.00
2018-04-28T02:26:18.295Z,0.00
2018-04-28T02:27:18.245Z,0.00
2018-04-28T02:28:18.203Z,0.00
2018-04-28T02:29:18.147Z,0.00
2018-04-28T02:30:18.139Z,0.00
2018-04-28T02:31:18.049Z,0.00
2018-04-28T02:32:18.000Z,0.00
2018-04-28T02:33:17.955Z,0.00
2018-04-28T02:34:17.901Z,0.00
2018-04-28T02:35:17.889Z,0.00
2018-04-28T02:36:17.812Z,0.00
2018-04-28T02:37:17.756Z,0.00
2018-04-28T02:38:17.751Z,0.00
2018-04-28T02:39:17.659Z,0.00
2018-04-28T02:40:17.641Z,0.00
2018-04-28T02:41:17.567Z,0.00
2018-04-28T02:42:17.509Z,0.00
2018-04-28T02:43:17.467Z,0.00
2018-04-28T02:44:17.409Z,0.00
2018-04-28T02:45:17.393Z,0.00
2018-04-28T02:46:17.345Z,0.00
2018-04-28T02:47:17.267Z,0.00
2018-04-28T02:48:17.214Z,0.00
2018-04-28T02:49:17.170Z,0.00
2018-04-28T02:50:17.147Z,0.00
2018-04-28T02:51:17.108Z,0.00
2018-04-28T02:52:17.020Z,0.00
2018-04-28T02:53:16.965Z,0.00
2018-04-28T02:54:16.917Z,0.00
2018-04-28T02:55:16.911Z,0.00
2018-04-28T02:56:16.818Z,0.00
2018-04-28T02:57:16.800Z,0.00
2018-04-28T02:58:16.725Z,0.00
2018-04-28T02:59:16.671Z,0.00
2018-04-28T03:00:16.620Z,0.00
2018-04-28T03:01:16.615Z,0.00
2018-04-28T03:02:16.521Z,0.00
2018-04-28T03:03:16.471Z,0.00
2018-04-28T03:04:16.423Z,0.00
2018-04-28T03:05:16.374Z,0.00
2018-04-28T03:06:16.371Z,0.00
2018-04-28T03:07:16.275Z,0.00
2018-04-28T03:08:16.226Z,0.00
2018-04-28T03:09:16.182Z,0.00
2018-04-28T03:10:16.130Z,0.00
2018-04-28T03:11:16.111Z,0.00
2018-04-28T03:12:16.030Z,0.00
2018-04-28T03:13:16.014Z,0.00
2018-04-28T03:14:15.933Z,0.00
2018-04-28T03:15:15.886Z,0.00
2018-04-28T03:16:15.862Z,0.00
2018-04-28T03:17:15.777Z,0.00
2018-04-28T03:18:15.731Z,0.00
2018-04-28T03:19:15.713Z,0.00
2018-04-28T03:20:15.633Z,0.00
2018-04-28T03:21:15.581Z,0.00
2018-04-28T03:22:15.533Z,0.00
2018-04-28T03:23:15.484Z,0.00
2018-04-28T03:24:15.501Z,0.00
2018-04-28T03:25:15.395Z,0.00
2018-04-28T03:26:15.340Z,0.00
2018-04-28T03:27:15.331Z,0.00
2018-04-28T03:28:15.241Z,0.00
2018-04-28T03:29:15.186Z,0.00
2018-04-28T03:30:15.135Z,0.00
2018-04-28T03:31:15.090Z,0.00
2018-04-28T03:32:15.070Z,0.00
2018-04-28T03:33:14.987Z,0.00
2018-04-28T03:34:14.936Z,0.00
2018-04-28T03:35:14.887Z,0.00
2018-04-28T03:36:14.837Z,0.00
2018-04-28T03:37:14.820Z,0.00
2018-04-28T03:38:14.773Z,0.00
2018-04-28T03:39:14.723Z,0.00
2018-04-28T03:40:14.642Z,0.00
2018-04-28T03:41:14.592Z,0.00
2018-04-28T03:42:14.577Z,0.00
2018-04-28T03:43:14.497Z,0.00
2018-04-28T03:44:14.471Z,0.00
2018-04-28T03:45:14.390Z,0.00
2018-04-28T03:46:14.343Z,0.00
2018-04-28T03:47:14.288Z,0.00
2018-04-28T03:48:14.242Z,0.00
2018-04-28T03:49:14.237Z,0.00
2018-04-28T03:50:14.140Z,0.00
2018-04-28T03:51:14.096Z,0.00
2018-04-28T03:52:14.042Z,0.00
2018-04-28T03:53:13.991Z,0.00
2018-04-28T03:54:13.972Z,0.00
2018-04-28T03:55:13.892Z,0.00
2018-04-28T03:56:13.852Z,0.00
2018-04-28T03:57:13.789Z,0.00
2018-04-28T03:58:13.787Z,0.00
2018-04-28T03:59:13.694Z,0.00
2018-04-28T04:00:13.651Z,0.00
2018-04-28T04:01:13.593Z,0.00
2018-04-28T04:02:13.544Z,0.00
2018-04-28T04:03:13.524Z,0.00
2018-04-28T04:04:13.444Z,0.00
2018-04-28T04:05:13.395Z,0.00
2018-04-28T04:06:13.380Z,5.63
2018-04-28T04:07:13.292Z,5.63
2018-04-28T04:08:13.243Z,5.63
2018-04-28T04:09:13.195Z,5.63
2018-04-28T04:10:13.175Z,5.63
2018-04-28T04:11:13.096Z,5.63
2018-04-28T04:12:13.043Z,5.63
2018-04-28T04:13:13.023Z,5.63
2018-04-28T04:14:12.942Z,5.63
2018-04-28T04:15:12.899Z,11.25
2018-04-28T04:16:12.843Z,11.25
2018-04-28T04:17:12.839Z,11.25
2018-04-28T04:18:12.823Z,11.25
2018-04-28T04:19:12.701Z,11.25
2018-04-28T04:20:12.645Z,11.25
2018-04-28T04:21:12.592Z,11.25
2018-04-28T04:22:12.544Z,16.88
2018-04-28T04:23:12.540Z,16.88
2018-04-28T04:24:12.439Z,16.88
2018-04-28T04:25:12.396Z,16.88
2018-04-28T04:26:12.343Z,16.88
2018-04-28T04:27:12.295Z,16.88
2018-04-28T04:28:12.271Z,22.50
2018-04-28T04:29:12.194Z,22.50
2018-04-28T04:30:12.140Z,22.50
2018-04-28T04:31:12.089Z,22.50
2018-04-28T04:32:12.072Z,22.50
2018-04-28T04:33:12.019Z,22.50
2018-04-28T04:34:11.943Z,28.13
2018-04-28T04:35:11.888Z,28.13
2018-04-28T04:36:11.840Z,28.13
2018-04-28T04:37:11.789Z,28.13
2018-04-28T04:38:11.770Z,28.13
2018-04-28T04:39:11.687Z,33.75
2018-04-28T04:40:11.669Z,33.75
2018-04-28T04:41:11.590Z,33.75
2018-04-28T04:42:11.537Z,33.75
2018-04-28T04:43:11.521Z,39.38
2018-04-28T04:44:11.435Z,39.38
2018-04-28T04:45:11.416Z,39.38
2018-04-28T04:46:11.335Z,39.38
2018-04-28T04:47:11.288Z,39.38
2018-04-28T04:48:11.233Z,39.38
2018-04-28T04:49:11.216Z,45.00
2018-04-28T04:50:11.133Z,45.00
2018-04-28T04:51:11.114Z,45.00
2018-04-28T04:52:11.062Z,45.00
2018-04-28T04:53:10.987Z,45.00
2018-04-28T04:54:10.929Z,50.63
2018-04-28T04:55:10.880Z,50.63
2018-04-28T04:56:10.863Z,50.63
2018-04-28T04:57:10.780Z,50.63
2018-04-28T04:58:10.730Z,50.63
2018-04-28T04:59:10.683Z,50.63
2018-04-28T05:00:10.626Z,56.25
2018-04-28T05:01:10.612Z,56.25
2018-04-28T05:02:10.528Z,56.25
2018-04-28T05:03:10.483Z,56.25
2018-04-28T05:04:10.427Z,56.25
2018-04-28T05:05:10.407Z,61.88
2018-04-28T05:06:10.333Z,61.88
2018-04-28T05:07:10.277Z,61.88
2018-04-28T05:08:10.258Z,61.88
2018-04-28T05:09:10.184Z,61.88
2018-04-28T05:10:10.125Z,61.88
2018-04-28T05:11:10.077Z,67.50
2018-04-28T05:12:10.025Z,67.50
2018-04-28T05:13:10.015Z,67.50
2018-04-28T05:14:09.924Z,67.50
2018-04-28T05:15:09.878Z,67.50
2018-04-28T05:16:09.825Z,67.50
2018-04-28T05:17:09.773Z,73.13
2018-04-28T05:18:09.763Z,73.13
2018-04-28T05:19:09.755Z,73.13
2018-04-28T05:20:09.624Z,73.13
2018-04-28T05:21:09.578Z,73.13
2018-04-28T05:22:09.526Z,73.13
2018-04-28T05:23:09.521Z,73.13
2018-04-28T05:24:09.425Z,78.75
2018-04-28T05:25:09.374Z,78.75
2018-04-28T05:26:09.325Z,78.75
2018-04-28T05:27:09.274Z,78.75
2018-04-28T05:28:09.272Z,78.75
2018-04-28T05:29:09.177Z,84.38
2018-04-28T05:30:09.124Z,84.38
2018-04-28T05:31:09.078Z,90.00
2018-04-28T05:32:09.036Z,84.38
2018-04-28T05:33:09.025Z,84.38
2018-04-28T05:34:08.925Z,84.38
2018-04-28T05:35:08.877Z,84.38
2018-04-28T05:36:08.826Z,90.00
2018-04-28T05:37:08.776Z,90.00
2018-04-28T05:38:08.761Z,90.00
2018-04-28T05:39:08.708Z,90.00
2018-04-28T05:40:08.630Z,90.00
2018-04-28T05:41:08.609Z,90.00
2018-04-28T05:42:08.530Z,90.00
2018-04-28T05:43:08.478Z,90.00
2018-04-28T05:44:08.470Z,95.63
2018-04-28T05:45:08.377Z,95.63
2018-04-28T05:46:08.333Z,95.63
2018-04-28T05:47:08.280Z,95.63
2018-04-28T05:48:08.232Z,95.63
2018-04-28T05:49:08.222Z,101.25
2018-04-28T05:50:08.136Z,95.63
2018-04-28T05:51:08.080Z,95.63
2018-04-28T05:52:08.053Z,95.63
2018-04-28T05:53:07.983Z,101.25
2018-04-28T05:54:07.966Z,101.25
2018-04-28T05:55:07.883Z,101.25
2018-04-28T05:56:07.875Z,101.25
2018-04-28T05:57:07.785Z,101.25
2018-04-28T05:58:07.734Z,106.88
2018-04-28T05:59:07.688Z,106.88
2018-04-28T06:00:07.633Z,106.88
2018-04-28T06:01:07.630Z,106.88
2018-04-28T06:02:07.537Z,106.88
2018-04-28T06:03:07.488Z,106.88
2018-04-28T06:04:07.441Z,112.50
2018-04-28T06:05:07.394Z,112.50
2018-04-28T06:06:07.381Z,112.50
2018-04-28T06:07:07.297Z,112.50
2018-04-28T06:08:07.243Z,112.50
2018-04-28T06:09:07.193Z,118.13
2018-04-28T06:10:07.146Z,118.13
2018-04-28T06:11:07.133Z,118.13
2018-04-28T06:12:07.091Z,118.13
2018-04-28T06:13:06.999Z,118.13
2018-04-28T06:14:06.976Z,123.75
2018-04-28T06:15:06.896Z,123.75
2018-04-28T06:16:06.882Z,123.75
2018-04-28T06:17:06.816Z,123.75
2018-04-28T06:18:06.751Z,123.75
2018-04-28T06:19:06.704Z,123.75
2018-04-28T06:20:06.809Z,123.75
2018-04-28T06:21:06.603Z,123.75
2018-04-28T06:22:06.557Z,123.75
2018-04-28T06:23:06.532Z,123.75
2018-04-28T06:24:06.458Z,123.75
2018-04-28T06:25:06.492Z,123.75
2018-04-28T06:26:06.462Z,123.75
2018-04-28T06:27:06.308Z,123.75
2018-04-28T06:28:06.290Z,123.75
2018-04-28T06:29:06.249Z,123.75
2018-04-28T06:30:06.206Z,129.38
2018-04-28T06:31:06.118Z,129.38
2018-04-28T06:32:06.064Z,129.38
2018-04-28T06:33:06.052Z,129.38
2018-04-28T06:34:05.964Z,129.38
2018-04-28T06:35:05.917Z,129.38
2018-04-28T06:36:05.898Z,129.38
2018-04-28T06:37:05.819Z,135.00
2018-04-28T06:38:05.774Z,135.00
2018-04-28T06:39:05.719Z,135.00
2018-04-28T06:40:05.672Z,135.00
2018-04-28T06:41:05.704Z,135.00
2018-04-28T06:42:05.574Z,135.00
2018-04-28T06:43:05.526Z,140.63
2018-04-28T06:44:05.476Z,140.63
2018-04-28T06:45:05.427Z,140.63
2018-04-28T06:46:05.428Z,140.63
2018-04-28T06:47:05.329Z,140.63
2018-04-28T06:48:05.285Z,140.63
2018-04-28T06:49:05.235Z,140.63
2018-04-28T06:50:05.192Z,140.63
2018-04-28T06:51:05.231Z,146.25
2018-04-28T06:52:05.106Z,146.25
2018-04-28T06:53:05.044Z,146.25
2018-04-28T06:54:04.993Z,146.25
2018-04-28T06:55:04.973Z,146.25
2018-04-28T06:56:04.890Z,146.25
2018-04-28T06:57:04.876Z,146.25
2018-04-28T06:58:04.833Z,151.88
2018-04-28T06:59:04.770Z,151.88
2018-04-28T07:00:04.705Z,151.88
2018-04-28T07:01:04.650Z,151.88
2018-04-28T07:02:04.602Z,157.50
2018-04-28T07:03:04.588Z,157.50
2018-04-28T07:04:04.512Z,157.50
2018-04-28T07:05:04.454Z,157.50
2018-04-28T07:06:04.424Z,157.50
2018-04-28T07:07:04.390Z,157.50
2018-04-28T07:08:04.309Z,163.13
2018-04-28T07:09:04.262Z,163.13
2018-04-28T07:10:04.213Z,163.13
2018-04-28T07:11:04.169Z,163.13
2018-04-28T07:12:04.152Z,163.13
2018-04-28T07:13:04.068Z,168.75
2018-04-28T07:14:04.019Z,168.75
2018-04-28T07:15:03.969Z,168.75
2018-04-28T07:16:03.919Z,168.75
2018-04-28T07:17:03.908Z,174.38
2018-04-28T07:18:03.823Z,174.38
2018-04-28T07:19:03.784Z,174.38
2018-04-28T07:20:03.763Z,174.38
2018-04-28T07:21:03.697Z,168.75
2018-04-28T07:22:03.676Z,168.75
2018-04-28T07:23:03.616Z,168.75
2018-04-28T07:24:03.531Z,168.75
2018-04-28T07:25:03.490Z,174.38
2018-04-28T07:26:03.441Z,174.38
2018-04-28T07:27:03.393Z,174.38
2018-04-28T07:28:03.371Z,180.00
2018-04-28T07:29:03.294Z,180.00
2018-04-28T07:30:03.245Z,180.00
2018-04-28T07:31:03.192Z,180.00
2018-04-28T07:32:03.177Z,180.00
2018-04-28T07:33:03.130Z,180.00
2018-04-28T07:34:03.051Z,180.00
2018-04-28T07:35:03.000Z,185.63
2018-04-28T07:36:02.984Z,191.25
2018-04-28T07:37:02.902Z,191.25
2018-04-28T07:38:02.854Z,185.63
2018-04-28T07:39:02.854Z,191.25
2018-04-28T07:40:02.767Z,191.25
2018-04-28T07:41:02.713Z,196.88
2018-04-28T07:42:02.663Z,196.88
2018-04-28T07:43:02.615Z,196.88
2018-04-28T07:44:02.603Z,196.88
2018-04-28T07:45:02.518Z,202.50
2018-04-28T07:46:02.470Z,196.88
2018-04-28T07:47:02.463Z,196.88
2018-04-28T07:48:02.374Z,196.88
2018-04-28T07:49:02.464Z,202.50
2018-04-28T07:50:02.280Z,208.13
2018-04-28T07:51:02.237Z,202.50
2018-04-28T07:52:02.214Z,202.50
2018-04-28T07:53:02.137Z,202.50
2018-04-28T07:54:02.142Z,208.13
2018-04-28T07:55:02.035Z,213.75
2018-04-28T07:56:02.027Z,213.75
2018-04-28T07:57:01.948Z,213.75
2018-04-28T07:58:01.893Z,213.75
2018-04-28T07:59:01.850Z,213.75
2018-04-28T08:00:01.798Z,219.38
2018-04-28T08:01:01.831Z,225.00
2018-04-28T08:02:01.699Z,225.00
2018-04-28T08:03:01.654Z,225.00
2018-04-28T08:04:01.604Z,230.63
2018-04-28T08:05:01.559Z,236.25
2018-04-28T08:06:01.550Z,241.88
2018-04-28T08:07:01.520Z,236.25
2018-04-28T08:08:01.429Z,241.88
2018-04-28T08:09:01.386Z,264.38
2018-04-28T08:10:01.332Z,253.13
2018-04-28T08:11:01.321Z,270.00
2018-04-28T08:12:01.229Z,281.25
2018-04-28T08:13:01.177Z,281.25
2018-04-28T08:14:01.132Z,281.25
2018-04-28T08:15:01.091Z,286.88
2018-04-28T08:16:01.068Z,286.88
2018-04-28T08:17:00.991Z,286.88
2018-04-28T08:18:00.972Z,292.50
2018-04-28T08:19:00.897Z,292.50
2018-04-28T08:20:00.844Z,292.50
2018-04-28T08:21:00.800Z,292.50
2018-04-28T08:22:00.784Z,298.13
2018-04-28T08:23:00.716Z,298.13
2018-04-28T08:24:00.696Z,298.13
2018-04-28T08:25:00.678Z,298.13
2018-04-28T08:26:00.575Z,303.75
2018-04-28T08:27:00.524Z,309.38
2018-04-28T08:28:00.480Z,309.38
2018-04-28T08:29:00.463Z,309.38
2018-04-28T08:30:00.388Z,309.38
2018-04-28T08:31:00.341Z,303.75
2018-04-28T08:32:00.340Z,309.38
2018-04-28T08:33:00.259Z,298.13
2018-04-28T08:34:00.204Z,309.38
2018-04-28T08:35:00.161Z,309.38
2018-04-28T08:36:00.128Z,309.38
2018-04-28T08:37:00.226Z,309.38
2018-04-28T08:38:00.850Z,309.38
2018-04-28T08:38:59.980Z,309.38
2018-04-28T08:39:59.936Z,309.38
2018-04-28T08:40:59.893Z,315.00
2018-04-28T08:41:59.885Z,315.00
2018-04-28T08:42:59.814Z,315.00
2018-04-28T08:43:59.762Z,320.63
2018-04-28T08:44:59.742Z,320.63
2018-04-28T08:45:59.667Z,326.25
2018-04-28T08:46:59.619Z,320.63
2018-04-28T08:47:59.586Z,320.63
2018-04-28T08:48:59.532Z,320.63
2018-04-28T08:49:59.527Z,320.63
2018-04-28T08:50:59.454Z,326.25
2018-04-28T08:51:59.401Z,326.25
2018-04-28T08:52:59.353Z,326.25
2018-04-28T08:53:59.326Z,326.25
2018-04-28T08:54:59.310Z,326.25
2018-04-28T08:55:59.224Z,331.88
2018-04-28T08:56:59.173Z,331.88
2018-04-28T08:57:59.129Z,331.88
2018-04-28T08:58:59.083Z,331.88
2018-04-28T08:59:59.069Z,331.88
2018-04-28T09:00:58.994Z,343.13
2018-04-28T09:01:58.948Z,343.13
2018-04-28T09:02:58.942Z,337.50
2018-04-28T09:03:58.866Z,337.50
2018-04-28T09:04:58.817Z,348.75
2018-04-28T09:05:58.825Z,348.75
2018-04-28T09:06:58.728Z,354.38
2018-04-28T09:07:58.688Z,348.75
2018-04-28T09:08:58.637Z,337.50
2018-04-28T09:09:58.599Z,337.50
2018-04-28T09:10:58.586Z,348.75
2018-04-28T09:11:58.510Z,337.50
2018-04-28T09:12:58.484Z,343.13
2018-04-28T09:13:58.455Z,343.13
2018-04-28T09:14:58.373Z,337.50
2018-04-28T09:15:58.326Z,343.13
2018-04-28T09:16:58.288Z,354.38
2018-04-28T09:17:58.240Z,354.38
2018-04-28T09:18:58.235Z,365.63
2018-04-28T09:19:58.159Z,354.38
2018-04-28T09:20:58.141Z,360.00
2018-04-28T09:21:58.065Z,371.25
2018-04-28T09:22:58.021Z,365.63
2018-04-28T09:23:57.978Z,371.25
2018-04-28T09:24:57.937Z,365.63
2018-04-28T09:25:57.928Z,365.63
2018-04-28T09:26:57.851Z,360.00
2018-04-28T09:27:57.804Z,371.25
2018-04-28T09:28:57.764Z,382.50
2018-04-28T09:29:57.757Z,393.75
2018-04-28T09:30:57.676Z,399.38
2018-04-28T09:31:57.636Z,399.38
2018-04-28T09:32:57.662Z,393.75
2018-04-28T09:33:57.545Z,393.75
2018-04-28T09:34:57.545Z,405.00
2018-04-28T09:35:57.456Z,410.63
2018-04-28T09:36:57.423Z,393.75
2018-04-28T09:37:57.374Z,382.50
2018-04-28T09:38:57.335Z,382.50
2018-04-28T09:39:57.352Z,388.13
2018-04-28T09:40:57.249Z,281.25
2018-04-28T09:41:57.201Z,281.25
2018-04-28T09:42:57.189Z,410.63
2018-04-28T09:43:57.114Z,393.75
2018-04-28T09:44:57.073Z,320.63
2018-04-28T09:45:57.032Z,371.25
2018-04-28T09:46:56.986Z,371.25
2018-04-28T09:47:56.977Z,388.13
2018-04-28T09:48:56.904Z,399.38
2018-04-28T09:49:56.892Z,382.50
2018-04-28T09:50:56.821Z,382.50
2018-04-28T09:51:56.812Z,382.50
2018-04-28T09:52:56.742Z,388.13
2018-04-28T09:53:56.686Z,388.13
2018-04-28T09:54:56.641Z,315.00
2018-04-28T09:55:56.600Z,247.50
2018-04-28T09:56:56.603Z,376.88
2018-04-28T09:57:56.515Z,354.38
2018-04-28T09:58:56.556Z,354.38
2018-04-28T09:59:56.429Z,348.75
2018-04-28T10:00:56.385Z,343.13
2018-04-28T10:01:56.381Z,343.13
2018-04-28T10:02:56.301Z,348.75
2018-04-28T10:03:56.263Z,360.00
2018-04-28T10:04:56.253Z,348.75
2018-04-28T10:05:56.242Z,365.63
2018-04-28T10:06:56.134Z,360.00
2018-04-28T10:07:56.091Z,365.63
2018-04-28T10:08:56.052Z,343.13
2018-04-28T10:09:56.038Z,382.50
2018-04-28T10:10:55.966Z,360.00
2018-04-28T10:11:55.924Z,365.63
2018-04-28T10:12:55.881Z,354.38
2018-04-28T10:13:55.849Z,376.88
2018-04-28T10:14:55.831Z,382.50
2018-04-28T10:15:55.754Z,405.00
2018-04-28T10:16:55.711Z,410.63
2018-04-28T10:17:55.673Z,416.25
2018-04-28T10:18:55.660Z,427.50
2018-04-28T10:19:55.586Z,433.13
2018-04-28T10:20:55.554Z,433.13
2018-04-28T10:21:55.503Z,438.75
2018-04-28T10:22:55.464Z,433.13
2018-04-28T10:23:55.456Z,433.13
2018-04-28T10:24:55.380Z,427.50
2018-04-28T10:25:55.336Z,438.75
2018-04-28T10:26:55.298Z,421.88
2018-04-28T10:27:55.254Z,421.88
2018-04-28T10:28:55.304Z,427.50
2018-04-28T10:29:55.171Z,438.75
2018-04-28T10:30:55.236Z,427.50
2018-04-28T10:31:55.091Z,399.38
2018-04-28T10:32:55.099Z,393.75
2018-04-28T10:33:55.042Z,388.13
2018-04-28T10:34:55.016Z,388.13
2018-04-28T10:35:54.922Z,388.13
2018-04-28T10:36:54.882Z,264.38
2018-04-28T10:37:54.875Z,382.50
2018-04-28T10:38:54.802Z,382.50
2018-04-28T10:39:54.807Z,382.50
2018-04-28T10:40:54.768Z,393.75
2018-04-28T10:41:54.677Z,388.13
2018-04-28T10:42:55.999Z,405.00
2018-04-28T10:43:54.594Z,405.00
2018-04-28T10:44:54.555Z,399.38
2018-04-28T10:45:54.517Z,405.00
2018-04-28T10:46:54.472Z,410.63
2018-04-28T10:47:54.485Z,393.75
2018-04-28T10:48:54.392Z,399.38
2018-04-28T10:49:54.348Z,393.75
2018-04-28T10:50:54.307Z,405.00
2018-04-28T10:51:54.265Z,286.88
2018-04-28T10:52:54.269Z,376.88
2018-04-28T10:53:54.266Z,416.25
2018-04-28T10:54:54.150Z,416.25
2018-04-28T10:55:54.148Z,410.63
2018-04-28T10:56:54.062Z,416.25
2018-04-28T10:57:54.132Z,410.63
2018-04-28T10:58:53.987Z,405.00
2018-04-28T10:59:53.972Z,405.00
2018-04-28T11:00:53.905Z,416.25
2018-04-28T11:01:53.856Z,393.75
2018-04-28T11:02:53.820Z,393.75
2018-04-28T11:03:53.817Z,360.00
2018-04-28T11:04:53.738Z,382.50
2018-04-28T11:05:53.706Z,382.50
2018-04-28T11:06:53.659Z,393.75
2018-04-28T11:07:53.623Z,348.75
2018-04-28T11:08:53.621Z,399.38
2018-04-28T11:09:53.532Z,416.25
2018-04-28T11:10:53.505Z,410.63
2018-04-28T11:11:53.461Z,393.75
2018-04-28T11:12:53.415Z,399.38
2018-04-28T11:13:53.448Z,388.13
2018-04-28T11:14:53.332Z,365.63
2018-04-28T11:15:53.297Z,371.25
2018-04-28T11:16:53.291Z,388.13
2018-04-28T11:17:53.206Z,388.13
2018-04-28T11:18:53.179Z,399.38
2018-04-28T11:19:53.211Z,399.38
2018-04-28T11:20:53.115Z,405.00
2018-04-28T11:21:53.045Z,393.75
2018-04-28T11:22:53.005Z,410.63
2018-04-28T11:23:52.960Z,405.00
2018-04-28T11:24:52.961Z,410.63
2018-04-28T11:25:52.887Z,410.63
2018-04-28T11:26:52.843Z,410.63
2018-04-28T11:27:52.799Z,410.63
2018-04-28T11:28:52.761Z,348.75
2018-04-28T11:29:52.746Z,399.38
2018-04-28T11:30:52.677Z,405.00
2018-04-28T11:31:52.638Z,410.63
2018-04-28T11:32:52.659Z,405.00
2018-04-28T11:33:52.555Z,405.00
2018-04-28T11:34:52.565Z,388.13
2018-04-28T11:35:52.473Z,371.25
2018-04-28T11:36:52.429Z,393.75
2018-04-28T11:37:52.391Z,399.38
2018-04-28T11:38:52.352Z,399.38
2018-04-28T11:39:52.356Z,399.38
2018-04-28T11:40:52.272Z,399.38
2018-04-28T11:41:52.227Z,399.38
2018-04-28T11:42:52.189Z,399.38
2018-04-28T11:43:52.165Z,399.38
2018-04-28T11:44:52.157Z,393.75
2018-04-28T11:45:52.070Z,399.38
2018-04-28T11:46:52.027Z,399.38
2018-04-28T11:47:51.989Z,399.38
2018-04-28T11:48:51.944Z,393.75
2018-04-28T11:49:51.944Z,399.38
2018-04-28T11:50:51.869Z,399.38
2018-04-28T11:51:52.527Z,405.00
2018-04-28T11:52:51.787Z,365.63
2018-04-28T11:53:51.748Z,399.38
2018-04-28T11:54:51.748Z,399.38
2018-04-28T11:55:51.670Z,399.38
2018-04-28T11:56:51.667Z,393.75
2018-04-28T11:57:51.588Z,360.00
2018-04-28T11:58:51.602Z,354.38
2018-04-28T11:59:51.507Z,354.38
2018-04-28T12:00:51.468Z,343.13
2018-04-28T12:01:51.475Z,348.75
2018-04-28T12:02:51.389Z,343.13
2018-04-28T12:03:51.351Z,343.13
2018-04-28T12:04:51.309Z,343.13
2018-04-28T12:05:51.281Z,354.38
2018-04-28T12:06:51.267Z,354.38
2018-04-28T12:07:51.191Z,348.75
2018-04-28T12:08:51.152Z,348.75
2018-04-28T12:09:51.114Z,326.25
2018-04-28T12:10:51.201Z,343.13
2018-04-28T12:11:51.034Z,348.75
2018-04-28T12:12:52.023Z,303.75
2018-04-28T12:13:50.956Z,348.75
2018-04-28T12:14:50.916Z,320.63
2018-04-28T12:15:50.911Z,326.25
2018-04-28T12:16:50.840Z,320.63
2018-04-28T12:17:50.795Z,309.38
2018-04-28T12:18:50.761Z,309.38
2018-04-28T12:19:50.717Z,303.75
2018-04-28T12:20:50.721Z,303.75
2018-04-28T12:21:50.642Z,270.00
2018-04-28T12:22:50.605Z,264.38
2018-04-28T12:23:50.559Z,253.13
2018-04-28T12:24:50.559Z,241.88
2018-04-28T12:25:50.484Z,241.88
2018-04-28T12:26:50.444Z,236.25
2018-04-28T12:27:50.405Z,213.75
2018-04-28T12:28:50.370Z,196.88
2018-04-28T12:29:50.384Z,191.25
2018-04-28T12:30:50.319Z,174.38
2018-04-28T12:31:50.248Z,174.38
2018-04-28T12:32:50.209Z,157.50
2018-04-28T12:33:50.176Z,146.25
2018-04-28T12:34:50.127Z,146.25
2018-04-28T12:35:50.116Z,135.00
2018-04-28T12:36:50.051Z,129.38
2018-04-28T12:37:50.008Z,118.13
2018-04-28T12:38:49.965Z,112.50
2018-04-28T12:39:49.965Z,106.88
2018-04-28T12:40:49.884Z,101.25
2018-04-28T12:41:49.849Z,95.63
2018-04-28T12:42:49.808Z,95.63
2018-04-28T12:43:49.796Z,84.38
2018-04-28T12:44:49.752Z,78.75
2018-04-28T12:45:49.682Z,73.13
2018-04-28T12:46:49.648Z,67.50